Time;durP1;ratioP1;P1;durP2;ratioP2;P2;SDS_P1;SDS_P2;PMS_P1;PMS_P2;Temp;Humidity;BMP_temperature;BMP_pressure;BME280_temperature;BME280_humidity;BME280_pressure;Samples;Min_cycle;Max_cycle;Signal;HPM_P1;HPM_P2
2020/12/09 00:00:09;;;;;;;43.10;24.75;;;3.80;99.90;;;;;;4970173;28;20030;-76
2020/12/09 00:02:34;;;;;;;42.03;23.70;;;3.80;99.90;;;;;;4970298;28;20027;-77
2020/12/09 00:05:04;;;;;;;42.83;25.08;;;3.80;99.90;;;;;;4970967;28;20129;-77
2020/12/09 00:07:33;;;;;;;41.88;24.45;;;3.90;99.90;;;;;;4971408;28;20035;-77
2020/12/09 00:09:59;;;;;;;45.08;25.02;;;3.90;99.90;;;;;;4971332;28;20510;-77
2020/12/09 00:12:27;;;;;;;43.72;24.20;;;4.00;99.90;;;;;;4971526;28;20043;-77
2020/12/09 00:14:53;;;;;;;39.70;24.52;;;4.00;99.90;;;;;;4970147;28;20019;-76
2020/12/09 00:17:18;;;;;;;40.63;24.75;;;4.00;99.90;;;;;;4958334;28;20043;-77
2020/12/09 00:19:44;;;;;;;39.45;23.40;;;4.00;99.90;;;;;;4979380;28;20167;-77
2020/12/09 00:22:10;;;;;;;39.97;23.73;;;4.00;99.90;;;;;;4981735;28;20550;-76
2020/12/09 00:24:35;;;;;;;38.60;22.90;;;4.00;99.90;;;;;;4951323;28;20042;-75
2020/12/09 00:27:01;;;;;;;45.33;24.05;;;4.00;99.90;;;;;;4969656;28;20085;-77
2020/12/09 00:29:27;;;;;;;43.28;24.88;;;4.00;99.90;;;;;;4969585;28;20047;-77
2020/12/09 00:31:52;;;;;;;41.00;23.95;;;3.90;99.90;;;;;;4970133;28;20041;-77
2020/12/09 00:34:18;;;;;;;41.13;24.48;;;4.00;99.90;;;;;;4969268;28;20031;-76
2020/12/09 00:36:43;;;;;;;43.85;26.05;;;4.00;99.90;;;;;;4970516;28;20023;-76
2020/12/09 00:39:09;;;;;;;39.15;22.98;;;3.90;99.90;;;;;;4981680;28;20031;-76
2020/12/09 00:41:35;;;;;;;40.50;24.23;;;4.00;99.90;;;;;;4965569;28;20386;-77
2020/12/09 00:44:00;;;;;;;41.78;24.25;;;4.00;99.90;;;;;;4983613;28;20641;-77
2020/12/09 00:46:27;;;;;;;40.15;22.92;;;4.00;99.90;;;;;;4967901;28;20173;-77
2020/12/09 00:48:53;;;;;;;38.25;22.67;;;4.10;99.90;;;;;;4966421;28;20098;-76
2020/12/09 00:51:21;;;;;;;39.70;23.75;;;4.10;99.90;;;;;;4965260;28;20035;-75
2020/12/09 00:53:48;;;;;;;40.47;23.63;;;4.20;99.90;;;;;;4969366;28;20031;-76
2020/12/09 00:56:14;;;;;;;41.92;24.80;;;4.20;99.90;;;;;;4968371;28;20022;-76
2020/12/09 00:58:40;;;;;;;39.97;23.65;;;4.10;99.90;;;;;;4967106;28;20018;-76
2020/12/09 01:01:08;;;;;;;37.72;21.63;;;4.10;99.90;;;;;;4968455;28;20034;-76
2020/12/09 01:03:34;;;;;;;41.95;24.42;;;4.10;99.90;;;;;;4968232;28;20031;-76
2020/12/09 01:06:01;;;;;;;40.50;23.10;;;4.10;99.90;;;;;;4967788;28;20486;-76
2020/12/09 01:08:27;;;;;;;38.85;22.63;;;4.10;99.90;;;;;;4968500;28;20026;-76
2020/12/09 01:10:54;;;;;;;37.83;22.08;;;4.20;99.90;;;;;;4968954;28;20054;-75
2020/12/09 01:13:20;;;;;;;40.33;23.65;;;4.30;99.90;;;;;;4969142;28;20073;-77
2020/12/09 01:15:45;;;;;;;43.40;24.35;;;4.20;99.90;;;;;;4969002;28;20023;-78
2020/12/09 01:18:11;;;;;;;38.38;23.13;;;4.30;99.90;;;;;;4968700;28;20106;-77
2020/12/09 01:20:37;;;;;;;38.45;23.00;;;4.20;99.90;;;;;;4965152;28;20073;-77
2020/12/09 01:23:03;;;;;;;41.25;24.92;;;4.20;99.90;;;;;;4973998;28;20054;-75
2020/12/09 01:25:29;;;;;;;42.13;24.55;;;4.10;99.90;;;;;;4982851;28;20030;-76
2020/12/09 01:27:59;;;;;;;42.03;23.90;;;3.90;99.90;;;;;;4983272;28;20530;-76
2020/12/09 01:30:25;;;;;;;41.70;24.58;;;3.90;99.90;;;;;;4968580;28;20058;-76
2020/12/09 01:32:50;;;;;;;39.25;23.30;;;3.90;99.90;;;;;;4983386;28;20050;-75
2020/12/09 01:35:16;;;;;;;39.47;23.83;;;4.00;99.90;;;;;;4966499;28;20529;-76
2020/12/09 01:37:42;;;;;;;38.53;23.08;;;4.10;99.90;;;;;;4983646;28;20031;-75
2020/12/09 01:40:07;;;;;;;38.17;23.50;;;4.20;99.90;;;;;;4968474;28;20027;-75
2020/12/09 01:42:33;;;;;;;40.72;24.30;;;4.10;99.90;;;;;;4972689;28;20035;-76
2020/12/09 01:44:58;;;;;;;39.13;23.55;;;3.90;99.90;;;;;;4971687;28;20035;-77
2020/12/09 01:47:24;;;;;;;39.38;23.88;;;4.10;99.90;;;;;;4972383;28;20846;-76
2020/12/09 01:49:51;;;;;;;39.58;23.63;;;4.10;99.90;;;;;;4972492;28;20034;-77
2020/12/09 01:52:17;;;;;;;39.97;24.63;;;4.00;99.90;;;;;;4970563;28;20109;-75
2020/12/09 01:54:42;;;;;;;38.38;23.23;;;3.80;99.90;;;;;;4971963;28;20086;-76
2020/12/09 01:57:10;;;;;;;38.47;22.50;;;3.80;99.90;;;;;;4972396;28;20122;-75
2020/12/09 01:59:37;;;;;;;40.40;23.75;;;3.90;99.90;;;;;;4972180;28;20023;-75
2020/12/09 02:02:03;;;;;;;42.70;24.20;;;3.90;99.90;;;;;;4972098;28;20026;-75
2020/12/09 02:04:30;;;;;;;37.50;22.33;;;4.00;99.90;;;;;;4970302;28;20362;-76
2020/12/09 02:06:56;;;;;;;38.53;23.02;;;4.00;99.90;;;;;;4971629;28;20081;-76
2020/12/09 02:09:23;;;;;;;37.53;22.95;;;4.00;99.90;;;;;;4971780;28;20031;-74
2020/12/09 02:11:50;;;;;;;40.47;23.25;;;3.90;99.90;;;;;;4970534;28;20026;-75
2020/12/09 02:14:16;;;;;;;43.88;23.70;;;3.80;99.90;;;;;;4969483;28;20030;-76
2020/12/09 02:16:42;;;;;;;42.75;24.33;;;3.60;99.90;;;;;;4970335;28;20736;-76
2020/12/09 02:19:08;;;;;;;45.95;26.30;;;3.40;99.90;;;;;;4970742;28;20045;-76
2020/12/09 02:21:35;;;;;;;43.88;25.02;;;3.30;99.90;;;;;;4971647;28;20038;-76
2020/12/09 02:24:00;;;;;;;46.30;25.80;;;3.20;99.90;;;;;;4969937;28;20037;-76
2020/12/09 02:26:27;;;;;;;43.92;24.95;;;3.20;99.90;;;;;;4971736;28;20064;-77
2020/12/09 02:28:53;;;;;;;43.85;25.08;;;3.30;99.90;;;;;;4972246;28;20034;-75
2020/12/09 02:31:19;;;;;;;40.83;23.17;;;3.30;99.90;;;;;;4972157;28;20035;-76
2020/12/09 02:33:44;;;;;;;49.65;27.33;;;3.40;99.90;;;;;;4972175;28;20097;-76
2020/12/09 02:36:11;;;;;;;45.90;25.90;;;3.30;99.90;;;;;;4971925;28;20393;-76
2020/12/09 02:38:36;;;;;;;46.67;25.45;;;3.20;99.90;;;;;;4972553;28;20026;-76
2020/12/09 02:41:02;;;;;;;45.65;25.33;;;3.30;99.90;;;;;;4972206;28;20031;-76
2020/12/09 02:43:29;;;;;;;43.28;25.77;;;3.40;99.90;;;;;;4970663;28;20057;-75
2020/12/09 02:45:54;;;;;;;45.67;25.33;;;3.60;99.90;;;;;;4971049;28;20118;-76
2020/12/09 02:48:20;;;;;;;40.55;24.33;;;3.60;99.90;;;;;;4971447;28;20058;-75
2020/12/09 02:50:46;;;;;;;41.38;25.08;;;3.70;99.90;;;;;;4970401;28;20448;-74
2020/12/09 02:53:11;;;;;;;44.03;25.10;;;3.70;99.90;;;;;;4963840;28;20041;-76
2020/12/09 02:55:37;;;;;;;41.22;24.58;;;3.60;99.90;;;;;;4985556;28;20034;-75
2020/12/09 02:58:02;;;;;;;44.10;25.50;;;3.60;99.90;;;;;;4971131;28;20055;-75
2020/12/09 03:00:28;;;;;;;40.85;24.35;;;3.60;99.90;;;;;;4971181;28;20033;-77
2020/12/09 03:02:53;;;;;;;41.80;24.42;;;3.70;99.90;;;;;;4956915;28;20031;-76
2020/12/09 03:05:19;;;;;;;43.75;24.90;;;3.80;99.90;;;;;;4952330;28;20028;-77
2020/12/09 03:07:45;;;;;;;39.78;23.50;;;3.80;99.90;;;;;;4953128;28;20146;-76
2020/12/09 03:10:10;;;;;;;40.40;24.15;;;3.90;99.90;;;;;;4954418;28;20500;-76
2020/12/09 03:12:36;;;;;;;41.00;24.58;;;4.00;99.90;;;;;;4954240;28;20038;-75
2020/12/09 03:15:02;;;;;;;40.28;23.95;;;3.90;99.90;;;;;;4954182;28;20434;-75
2020/12/09 03:17:28;;;;;;;46.40;25.20;;;3.90;99.90;;;;;;4954067;28;20031;-75
2020/12/09 03:19:55;;;;;;;47.97;26.35;;;3.90;99.90;;;;;;4954111;28;20031;-75
2020/12/09 03:22:21;;;;;;;49.80;27.77;;;3.60;99.90;;;;;;4954274;28;20074;-75
2020/12/09 03:24:46;;;;;;;48.10;27.00;;;3.00;99.90;;;;;;4953646;28;20367;-75
2020/12/09 03:27:13;;;;;;;49.22;26.83;;;2.90;99.90;;;;;;4953638;28;20435;-76
2020/12/09 03:29:39;;;;;;;53.17;28.98;;;;;;;;;;4953497;28;20086;-75
2020/12/09 03:32:05;;;;;;;48.55;27.20;;;;;;;;;;4953870;28;20503;-75
2020/12/09 03:34:31;;;;;;;51.08;26.13;;;;;;;;;;4953473;28;20059;-76
2020/12/09 03:36:57;;;;;;;52.22;27.63;;;;;;;;;;4953527;28;20062;-76
2020/12/09 03:39:23;;;;;;;52.20;29.30;;;;;;;;;;4953783;28;20418;-76
2020/12/09 03:41:49;;;;;;;59.13;30.92;;;;;;;;;;4953633;28;20036;-76
2020/12/09 03:44:15;;;;;;;55.97;29.60;;;;;;;;;;4953612;28;20070;-75
2020/12/09 03:46:41;;;;;;;57.38;29.20;;;;;;;;;;4953400;28;20031;-76
2020/12/09 03:49:07;;;;;;;54.88;29.67;;;;;;;;;;4953057;28;20437;-75
2020/12/09 03:51:33;;;;;;;46.42;26.33;;;;;;;;;;4951554;28;20035;-75
2020/12/09 03:53:59;;;;;;;51.83;28.70;;;;;;;;;;4952926;28;20391;-75
2020/12/09 03:56:25;;;;;;;53.45;29.38;;;;;;;;;;4953116;28;20019;-76
2020/12/09 03:58:51;;;;;;;55.30;29.38;;;;;;;;;;4953021;28;20027;-77
2020/12/09 04:01:17;;;;;;;49.47;27.25;;;;;;;;;;4953229;28;20391;-76
2020/12/09 04:03:44;;;;;;;49.28;27.63;;;;;;;;;;4963380;28;20031;-76
2020/12/09 04:06:10;;;;;;;51.88;27.73;;;;;;;;;;4980726;28;20035;-77
2020/12/09 04:08:35;;;;;;;47.50;26.80;;;3.00;99.90;;;;;;4950823;28;20031;-76
2020/12/09 04:11:01;;;;;;;47.03;26.40;;;;;;;;;;4950536;28;20027;-77
2020/12/09 04:13:27;;;;;;;45.83;26.20;;;3.10;99.90;;;;;;4950716;28;20111;-77
2020/12/09 04:15:52;;;;;;;45.50;25.63;;;3.40;99.90;;;;;;4950110;28;20035;-77
2020/12/09 04:18:18;;;;;;;59.00;32.60;;;3.50;99.90;;;;;;4968954;28;20198;-74
2020/12/09 04:20:44;;;;;;;53.70;28.83;;;3.40;99.90;;;;;;4984305;28;20610;-77
2020/12/09 04:23:09;;;;;;;51.13;29.27;;;3.20;99.90;;;;;;4969041;28;20089;-77
2020/12/09 04:25:35;;;;;;;53.33;28.42;;;3.20;99.90;;;;;;4968942;28;20466;-76
2020/12/09 04:28:01;;;;;;;52.55;28.58;;;;;;;;;;4983924;28;20660;-75
2020/12/09 04:30:27;;;;;;;51.75;28.70;;;;;;;;;;4983934;28;20030;-76
2020/12/09 04:32:53;;;;;;;51.85;28.08;;;;;;;;;;4969090;28;20627;-75
2020/12/09 04:35:19;;;;;;;51.53;28.27;;;;;;;;;;4968481;28;20053;-75
2020/12/09 04:37:45;;;;;;;57.47;30.15;;;;;;;;;;4969476;28;20034;-76
2020/12/09 04:40:11;;;;;;;58.03;29.77;;;;;;;;;;4969429;28;20081;-76
2020/12/09 04:42:37;;;;;;;53.67;30.13;;;;;;;;;;4969167;28;20046;-76
2020/12/09 04:45:04;;;;;;;57.97;30.30;;;;;;;;;;4968520;28;20023;-77
2020/12/09 04:47:41;;;;;;;50.28;27.95;;;;;;;;;;4968955;28;20026;-77
2020/12/09 04:50:09;;;;;;;52.40;27.77;;;;;;;;;;4968816;28;20030;-77
2020/12/09 04:52:35;;;;;;;;;;;;;;;;;;4968834;28;20434;-76
2020/12/09 04:55:11;;;;;;;49.92;26.65;;;;;;;;;;4999091;28;19910;-77
2020/12/09 04:57:37;;;;;;;46.50;25.52;;;2.90;99.90;;;;;;4968817;28;20023;-77
2020/12/09 05:00:07;;;;;;;46.70;26.20;;;3.30;99.90;;;;;;4983493;28;20023;-76
2020/12/09 05:02:56;;;;;;;43.90;25.70;;;3.50;99.90;;;;;;4967624;28;20030;-77
2020/12/09 05:05:24;;;;;;;41.58;24.92;;;3.60;99.90;;;;;;4969699;28;20438;-75
2020/12/09 05:07:52;;;;;;;45.70;25.83;;;3.70;99.90;;;;;;4985003;28;20118;-77
2020/12/09 05:10:18;;;;;;;;;;;3.70;99.90;;;;;;4969150;28;20668;-76
2020/12/09 05:12:50;;;;;;;43.80;24.42;;;3.60;99.90;;;;;;4968679;28;20348;-77
2020/12/09 05:15:25;;;;;;;47.05;25.65;;;3.70;99.90;;;;;;4967300;28;20106;-76
2020/12/09 05:18:03;;;;;;;43.42;25.75;;;3.80;99.90;;;;;;4968612;28;20069;-76
2020/12/09 05:20:31;;;;;;;;;;;3.80;99.90;;;;;;4969159;28;20027;-76
2020/12/09 05:22:57;;;;;;;47.97;27.13;;;3.90;99.90;;;;;;4967429;28;19914;-75
2020/12/09 05:25:26;;;;;;;49.13;27.38;;;3.60;99.90;;;;;;4969351;28;20031;-75
2020/12/09 05:27:53;;;;;;;46.47;26.83;;;3.80;99.90;;;;;;4969660;28;20214;-75
2020/12/09 05:30:48;;;;;;;46.10;25.98;;;3.90;99.90;;;;;;4969265;28;20030;-74
2020/12/09 05:33:15;;;;;;;42.78;25.02;;;3.90;99.90;;;;;;4969574;28;20037;-75
2020/12/09 05:35:42;;;;;;;42.60;25.20;;;3.90;99.90;;;;;;4969407;28;20065;-76
2020/12/09 05:38:10;;;;;;;48.28;26.65;;;4.00;99.90;;;;;;4968034;28;20047;-76
2020/12/09 05:40:37;;;;;;;48.85;28.77;;;4.10;99.90;;;;;;4968778;28;20118;-76
2020/12/09 05:43:03;;;;;;;53.73;29.27;;;4.00;99.90;;;;;;4968638;28;20026;-77
2020/12/09 05:45:28;;;;;;;49.10;27.63;;;3.90;99.90;;;;;;4969156;28;20849;-76
2020/12/09 05:48:31;;;;;;;52.28;28.88;;;3.80;99.90;;;;;;4969198;28;20027;-76
2020/12/09 05:50:59;;;;;;;47.08;26.83;;;3.90;99.90;;;;;;4983358;28;20073;-75
2020/12/09 05:53:30;;;;;;;47.72;26.52;;;4.00;99.90;;;;;;4983634;28;20148;-75
2020/12/09 05:56:16;;;;;;;44.50;25.50;;;4.10;99.90;;;;;;4968008;28;20051;-75
2020/12/09 05:58:44;;;;;;;45.47;25.85;;;4.10;99.90;;;;;;4969272;28;20113;-75
2020/12/09 06:01:10;;;;;;;;;;;4.00;99.90;;;;;;4969531;28;20054;-75
2020/12/09 06:03:41;;;;;;;46.80;24.95;;;3.80;99.90;;;;;;4983689;28;19968;-75
2020/12/09 06:06:27;;;;;;;54.97;29.77;;;3.90;99.90;;;;;;4968285;28;20078;-74
2020/12/09 06:08:57;;;;;;;44.67;24.85;;;3.70;99.90;;;;;;4968691;28;20125;-74
2020/12/09 06:11:28;;;;;;;52.95;26.20;;;3.90;99.90;;;;;;4968666;28;20038;-74
2020/12/09 06:13:54;;;;;;;48.28;25.05;;;4.00;99.90;;;;;;4967525;28;20026;-75
2020/12/09 06:16:21;;;;;;;41.72;24.70;;;4.00;99.90;;;;;;4968060;28;20407;-74
2020/12/09 06:18:48;;;;;;;43.53;24.77;;;4.00;99.90;;;;;;4967243;28;20082;-75
2020/12/09 06:21:14;;;;;;;43.72;25.08;;;3.90;99.90;;;;;;4968811;28;20078;-75
2020/12/09 06:23:41;;;;;;;44.80;25.40;;;3.90;99.90;;;;;;4968620;28;20546;-75
2020/12/09 06:26:07;;;;;;;43.03;25.70;;;4.00;99.90;;;;;;4969010;28;20027;-74
2020/12/09 06:28:36;;;;;;;49.13;26.67;;;3.90;99.90;;;;;;4972160;28;20569;-74
2020/12/09 06:31:29;;;;;;;47.92;27.05;;;3.90;99.90;;;;;;4986604;28;20030;-75
2020/12/09 06:33:57;;;;;;;57.08;28.95;;;3.80;99.90;;;;;;4972921;28;20027;-75
2020/12/09 06:36:22;;;;;;;;;;;3.70;99.90;;;;;;4971761;28;20497;-75
2020/12/09 06:39:11;;;;;;;58.17;30.27;;;3.50;99.90;;;;;;4971791;28;19906;-74
2020/12/09 06:41:46;;;;;;;55.75;28.50;;;3.10;99.90;;;;;;4971275;28;20085;-76
2020/12/09 06:44:14;;;;;;;58.65;29.73;;;3.00;99.90;;;;;;4970718;28;20023;-75
2020/12/09 06:46:51;;;;;;;61.67;28.88;;;2.90;99.90;;;;;;4971425;28;20501;-75
2020/12/09 06:49:33;;;;;;;59.22;28.67;;;2.90;99.90;;;;;;4971380;28;20054;-73
2020/12/09 06:52:02;;;;;;;56.72;28.10;;;;;;;;;;4971408;28;20031;-74
2020/12/09 06:54:39;;;;;;;63.65;29.65;;;;;;;;;;4971392;28;20128;-75
2020/12/09 06:57:17;;;;;;;58.42;28.42;;;;;;;;;;4971670;28;20077;-75
2020/12/09 06:59:44;;;;;;;71.20;28.08;;;;;;;;;;4970981;28;20101;-76
2020/12/09 07:02:10;;;;;;;61.47;27.38;;;2.80;99.90;;;;;;4971227;28;20058;-76
2020/12/09 07:04:53;;;;;;;55.17;27.20;;;3.30;99.90;;;;;;4970489;28;20428;-76
2020/12/09 07:07:34;;;;;;;52.13;25.63;;;3.40;99.90;;;;;;4970591;28;20196;-76
2020/12/09 07:10:01;;;;;;;61.88;29.92;;;3.50;99.90;;;;;;4971077;28;20070;-75
2020/12/09 07:12:27;;;;;;;57.38;28.90;;;3.50;99.90;;;;;;4969713;28;20023;-75
2020/12/09 07:14:54;;;;;;;55.75;27.75;;;3.40;99.90;;;;;;4970414;28;20029;-75
2020/12/09 07:17:28;;;;;;;60.28;30.95;;;3.50;99.90;;;;;;4970617;28;20069;-75
2020/12/09 07:19:57;;;;;;;58.67;29.30;;;3.60;99.90;;;;;;4970731;28;20034;-76
2020/12/09 07:22:24;;;;;;;57.60;27.55;;;3.60;99.90;;;;;;4968705;28;20077;-76
2020/12/09 07:24:51;;;;;;;55.90;28.45;;;3.50;99.90;;;;;;4969973;28;20027;-75
2020/12/09 07:27:19;;;;;;;55.42;28.05;;;3.30;99.90;;;;;;4970620;28;20109;-77
2020/12/09 07:29:46;;;;;;;61.85;29.48;;;3.20;99.90;;;;;;4985404;28;20057;-76
2020/12/09 07:32:16;;;;;;;;;;;3.00;99.90;;;;;;4970930;28;20023;-75
2020/12/09 07:34:54;;;;;;;50.13;25.92;;;3.10;99.90;;;;;;4984681;28;19910;-76
2020/12/09 07:37:22;;;;;;;51.60;26.67;;;3.40;99.90;;;;;;4984733;28;20045;-75
2020/12/09 07:39:50;;;;;;;48.45;25.80;;;3.50;99.90;;;;;;4985332;28;20038;-75
2020/12/09 07:42:16;;;;;;;52.67;27.08;;;3.60;99.90;;;;;;4970655;28;20023;-75
2020/12/09 07:44:43;;;;;;;52.72;29.52;;;3.60;99.90;;;;;;4969837;28;20115;-76
2020/12/09 07:47:10;;;;;;;53.83;29.02;;;3.70;99.90;;;;;;4970306;28;20026;-75
2020/12/09 07:49:36;;;;;;;45.53;26.17;;;3.80;99.90;;;;;;4970638;28;20075;-76
2020/12/09 07:52:29;;;;;;;49.78;28.52;;;3.90;99.90;;;;;;4968921;28;20437;-75
2020/12/09 07:54:58;;;;;;;49.13;26.90;;;3.90;99.90;;;;;;4970296;28;20517;-75
2020/12/09 07:57:28;;;;;;;45.45;25.52;;;4.00;99.90;;;;;;4970497;28;20399;-75
2020/12/09 07:59:55;;;;;;;55.63;28.35;;;4.00;99.90;;;;;;4985336;28;20136;-76
2020/12/09 08:02:23;;;;;;;45.33;26.33;;;3.90;99.90;;;;;;4968872;28;20564;-75
2020/12/09 08:05:12;;;;;;;44.15;25.60;;;4.00;99.90;;;;;;4970058;28;20019;-76
2020/12/09 08:07:46;;;;;;;46.90;27.15;;;4.00;99.90;;;;;;4984806;28;20394;-74
2020/12/09 08:10:11;;;;;;;46.33;26.73;;;4.00;99.90;;;;;;4970027;28;20117;-76
2020/12/09 08:12:39;;;;;;;43.45;25.55;;;4.00;99.90;;;;;;4969941;28;20146;-76
2020/12/09 08:15:05;;;;;;;;;;;4.00;99.90;;;;;;4969817;28;20030;-76
2020/12/09 08:17:32;;;;;;;48.13;25.40;;;4.00;99.90;;;;;;4969708;28;20305;-77
2020/12/09 08:20:07;;;;;;;43.50;25.40;;;4.00;99.90;;;;;;4970051;28;20027;-77
2020/12/09 08:22:53;;;;;;;46.00;26.33;;;4.10;99.90;;;;;;4970194;28;20023;-76
2020/12/09 08:25:20;;;;;;;44.40;25.42;;;4.10;99.90;;;;;;4969574;28;20436;-76
2020/12/09 08:27:46;;;;;;;46.30;26.67;;;4.10;99.90;;;;;;4969764;28;20035;-76
2020/12/09 08:30:24;;;;;;;45.92;27.02;;;4.10;99.90;;;;;;4968212;28;20438;-74
2020/12/09 08:33:04;;;;;;;;;;;4.10;99.90;;;;;;4969990;28;20022;-76
2020/12/09 08:35:43;;;;;;;49.60;28.50;;;4.00;99.90;;;;;;4968937;28;19906;-75
2020/12/09 08:38:20;;;;;;;54.95;29.70;;;4.00;99.90;;;;;;4969535;28;20034;-75
2020/12/09 08:40:49;;;;;;;56.38;30.13;;;4.00;99.90;;;;;;4968195;28;20050;-75
2020/12/09 08:43:15;;;;;;;53.42;29.77;;;3.90;99.90;;;;;;4969106;28;20023;-75
2020/12/09 08:45:43;;;;;;;54.38;30.33;;;3.90;99.90;;;;;;4983629;28;20018;-75
2020/12/09 08:48:08;;;;;;;54.17;29.17;;;3.90;99.90;;;;;;4969243;28;20031;-76
2020/12/09 08:50:34;;;;;;;57.55;31.13;;;3.80;99.90;;;;;;4969327;28;20031;-75
2020/12/09 08:52:59;;;;;;;59.67;31.73;;;3.70;99.90;;;;;;4969023;28;20104;-75
2020/12/09 08:55:26;;;;;;;58.97;31.92;;;3.60;99.90;;;;;;4968535;28;20033;-76
2020/12/09 08:57:51;;;;;;;58.85;31.70;;;3.60;99.90;;;;;;4969325;28;20023;-75
2020/12/09 09:00:17;;;;;;;60.28;31.70;;;3.60;99.90;;;;;;4983881;28;20058;-75
2020/12/09 09:02:43;;;;;;;58.88;32.50;;;3.60;99.90;;;;;;4969407;28;20034;-75
2020/12/09 09:05:09;;;;;;;58.50;31.92;;;3.60;99.90;;;;;;4968977;28;20410;-75
2020/12/09 09:07:35;;;;;;;53.70;30.52;;;3.70;99.90;;;;;;4968965;28;20462;-77
2020/12/09 09:10:01;;;;;;;59.30;34.00;;;3.70;99.90;;;;;;4970351;28;20437;-76
2020/12/09 09:12:26;;;;;;;65.63;35.58;;;3.70;99.90;;;;;;4968782;28;20046;-75
2020/12/09 09:14:52;;;;;;;58.85;32.47;;;3.60;99.90;;;;;;4961488;28;20051;-75
2020/12/09 09:17:18;;;;;;;60.58;32.10;;;3.50;99.90;;;;;;4949950;28;20568;-76
2020/12/09 09:19:43;;;;;;;63.60;32.40;;;3.40;99.90;;;;;;4949787;28;20027;-76
2020/12/09 09:22:11;;;;;;;66.90;34.47;;;3.30;99.90;;;;;;4949487;28;20027;-76
2020/12/09 09:24:36;;;;;;;;;;;3.50;99.90;;;;;;4949216;28;20122;-76
2020/12/09 09:27:02;;;;;;;63.20;32.60;;;3.60;99.90;;;;;;4949730;28;20425;-74
2020/12/09 09:29:32;;;;;;;57.67;31.65;;;3.80;99.90;;;;;;4949347;28;20105;-76
2020/12/09 09:31:57;;;;;;;57.50;31.20;;;4.00;99.90;;;;;;4947648;28;20019;-76
2020/12/09 09:34:23;;;;;;;51.22;28.10;;;4.00;99.90;;;;;;4947649;28;20097;-76
2020/12/09 09:36:49;;;;;;;48.67;28.15;;;4.00;99.90;;;;;;4950047;28;20047;-76
2020/12/09 09:39:14;;;;;;;45.20;26.13;;;4.00;99.90;;;;;;4949702;28;20030;-75
2020/12/09 09:41:40;;;;;;;43.00;25.00;;;4.10;99.90;;;;;;4949646;28;20454;-76
2020/12/09 09:44:06;;;;;;;47.92;26.92;;;4.10;99.90;;;;;;4949542;28;20035;-73
2020/12/09 09:46:32;;;;;;;48.22;27.20;;;4.10;99.90;;;;;;4950362;28;20395;-76
2020/12/09 09:48:57;;;;;;;50.72;27.95;;;4.20;99.90;;;;;;4949817;28;20038;-76
2020/12/09 09:51:23;;;;;;;45.40;25.60;;;4.30;99.90;;;;;;4948792;28;20046;-76
2020/12/09 09:53:49;;;;;;;45.00;25.17;;;4.30;99.90;;;;;;4949070;28;20105;-74
2020/12/09 09:56:14;;;;;;;44.17;25.05;;;4.30;99.90;;;;;;4948941;28;20030;-75
2020/12/09 09:58:40;;;;;;;46.75;25.52;;;4.30;99.90;;;;;;4949124;28;20565;-75
2020/12/09 10:01:07;;;;;;;48.47;25.67;;;4.30;99.90;;;;;;4948928;28;20470;-75
2020/12/09 10:03:32;;;;;;;45.80;25.55;;;4.40;99.90;;;;;;4972825;28;20394;-75
2020/12/09 10:05:58;;;;;;;45.63;26.30;;;4.40;99.90;;;;;;4971682;28;20042;-75
2020/12/09 10:08:23;;;;;;;44.70;25.13;;;4.40;99.90;;;;;;4972035;28;20082;-75
2020/12/09 10:10:49;;;;;;;44.42;25.63;;;4.30;99.90;;;;;;4972386;28;20362;-76
2020/12/09 10:13:15;;;;;;;49.65;27.30;;;4.30;99.90;;;;;;4987045;28;20117;-76
2020/12/09 10:15:40;;;;;;;43.75;25.52;;;4.30;99.90;;;;;;4971734;28;20109;-78
2020/12/09 10:18:06;;;;;;;47.72;27.30;;;4.20;99.90;;;;;;4971081;28;20058;-75
2020/12/09 10:20:32;;;;;;;46.75;25.70;;;4.30;99.90;;;;;;4972094;28;20453;-74
2020/12/09 10:22:57;;;;;;;45.33;26.27;;;4.30;99.90;;;;;;4972588;28;20030;-75
2020/12/09 10:25:24;;;;;;;43.00;25.55;;;4.40;99.90;;;;;;4971615;28;20035;-74
2020/12/09 10:27:50;;;;;;;42.38;25.05;;;4.40;99.90;;;;;;4971749;28;20027;-75
2020/12/09 10:30:16;;;;;;;46.17;25.35;;;4.40;99.90;;;;;;4971561;28;20725;-75
2020/12/09 10:32:44;;;;;;;43.67;25.35;;;4.40;99.90;;;;;;4970575;28;20023;-73
2020/12/09 10:35:09;;;;;;;47.17;26.90;;;4.40;99.90;;;;;;4970706;28;20049;-75
2020/12/09 10:37:35;;;;;;;46.22;25.45;;;4.30;99.90;;;;;;4971555;28;20478;-74
2020/12/09 10:40:00;;;;;;;49.03;27.08;;;4.20;99.90;;;;;;4971809;28;20038;-75
2020/12/09 10:42:26;;;;;;;52.80;27.30;;;4.20;99.90;;;;;;4986300;28;20027;-75
2020/12/09 10:44:52;;;;;;;49.25;27.95;;;4.10;99.90;;;;;;4969556;28;20027;-74
2020/12/09 10:47:18;;;;;;;50.65;28.15;;;4.10;99.90;;;;;;4971654;28;20090;-75
2020/12/09 10:49:44;;;;;;;46.15;26.58;;;4.10;99.90;;;;;;4986715;28;20034;-75
2020/12/09 10:52:11;;;;;;;49.42;27.58;;;4.10;99.90;;;;;;4971151;28;20027;-75
2020/12/09 10:54:37;;;;;;;49.15;26.27;;;4.10;99.90;;;;;;4985631;28;20121;-77
2020/12/09 10:57:04;;;;;;;44.97;26.67;;;4.00;99.90;;;;;;4987028;28;20848;-74
2020/12/09 10:59:31;;;;;;;49.17;26.70;;;4.10;99.90;;;;;;4971540;28;20022;-74
2020/12/09 11:01:56;;;;;;;50.78;26.80;;;4.20;99.90;;;;;;4971167;28;20038;-75
2020/12/09 11:04:22;;;;;;;48.45;26.85;;;4.20;99.90;;;;;;4969667;28;20061;-75
2020/12/09 11:06:48;;;;;;;49.17;25.58;;;4.20;99.90;;;;;;4970816;28;20090;-76
2020/12/09 11:09:13;;;;;;;50.40;27.08;;;4.30;99.90;;;;;;4971105;28;20031;-75
2020/12/09 11:11:45;;;;;;;43.17;25.80;;;4.30;99.90;;;;;;4985778;28;20054;-75
2020/12/09 11:14:15;;;;;;;44.30;25.50;;;4.40;99.90;;;;;;4967736;28;20027;-77
2020/12/09 11:16:42;;;;;;;41.88;24.42;;;4.40;99.90;;;;;;4970882;28;20023;-75
2020/12/09 11:19:08;;;;;;;47.53;25.02;;;4.30;99.90;;;;;;4969345;28;20027;-75
2020/12/09 11:21:33;;;;;;;44.42;25.35;;;4.30;99.90;;;;;;4969404;28;20561;-76
2020/12/09 11:23:59;;;;;;;43.60;25.40;;;4.40;99.90;;;;;;4970179;28;20106;-75
2020/12/09 11:26:27;;;;;;;42.38;24.75;;;4.40;99.90;;;;;;4970509;28;20336;-75
2020/12/09 11:28:53;;;;;;;44.00;24.70;;;4.50;99.90;;;;;;4970795;28;20055;-75
2020/12/09 11:31:20;;;;;;;43.67;25.15;;;4.50;99.90;;;;;;4970230;28;20039;-76
2020/12/09 11:33:47;;;;;;;38.10;23.92;;;4.50;99.90;;;;;;4969033;28;20027;-75
2020/12/09 11:36:13;;;;;;;42.42;24.35;;;4.50;99.90;;;;;;4969588;28;20037;-76
2020/12/09 11:38:38;;;;;;;40.53;24.38;;;4.60;99.90;;;;;;4969980;28;20023;-75
2020/12/09 11:41:04;;;;;;;43.28;24.52;;;4.50;99.90;;;;;;4968791;28;20045;-76
2020/12/09 11:43:29;;;;;;;44.45;26.13;;;4.60;99.90;;;;;;4970173;28;20034;-75
2020/12/09 11:45:57;;;;;;;41.72;24.10;;;4.50;99.90;;;;;;4968116;28;20031;-75
2020/12/09 11:48:24;;;;;;;43.45;24.05;;;4.60;99.90;;;;;;4964897;28;20449;-75
2020/12/09 11:50:50;;;;;;;41.92;23.77;;;4.60;99.90;;;;;;4967782;28;20775;-75
2020/12/09 11:53:15;;;;;;;44.40;25.02;;;4.70;99.90;;;;;;4970003;28;20015;-75
2020/12/09 11:55:41;;;;;;;45.42;24.38;;;4.70;99.90;;;;;;4969830;28;20026;-76
2020/12/09 11:58:07;;;;;;;45.80;24.50;;;4.70;99.90;;;;;;4970164;28;20126;-75
2020/12/09 12:00:33;;;;;;;40.97;24.15;;;4.60;99.90;;;;;;4970021;28;20501;-75
2020/12/09 12:02:58;;;;;;;43.03;24.92;;;4.60;99.90;;;;;;4984786;28;20394;-75
2020/12/09 12:05:26;;;;;;;45.17;25.33;;;4.60;99.90;;;;;;4969454;28;20544;-74
2020/12/09 12:07:52;;;;;;;;;;;4.50;99.90;;;;;;4970649;28;20026;-76
2020/12/09 12:10:18;;;;;;;48.25;27.48;;;4.50;99.90;;;;;;4969411;28;19910;-76
2020/12/09 12:12:43;;;;;;;50.80;27.63;;;4.30;99.90;;;;;;4970502;28;20102;-77
2020/12/09 12:15:09;;;;;;;54.63;28.33;;;4.30;99.90;;;;;;4970051;28;20512;-76
2020/12/09 12:17:35;;;;;;;44.80;26.40;;;4.20;99.90;;;;;;4982262;28;20035;-77
2020/12/09 12:20:00;;;;;;;49.88;27.10;;;4.10;99.90;;;;;;4951367;28;20019;-74
2020/12/09 12:22:26;;;;;;;47.67;26.55;;;4.20;99.90;;;;;;4951834;28;20086;-76
2020/12/09 12:24:52;;;;;;;45.30;26.23;;;4.30;99.90;;;;;;4950044;28;20164;-77
2020/12/09 12:27:18;;;;;;;46.80;27.40;;;4.30;99.90;;;;;;4949920;28;20093;-77
2020/12/09 12:29:43;;;;;;;42.17;24.58;;;4.30;99.90;;;;;;4949905;28;20552;-76
2020/12/09 12:32:10;;;;;;;51.85;31.00;;;4.20;99.90;;;;;;4951218;28;20023;-76
2020/12/09 12:34:36;;;;;;;52.47;28.83;;;3.80;99.90;;;;;;4949756;28;20028;-76
2020/12/09 12:37:02;;;;;;;55.67;31.20;;;3.70;99.90;;;;;;4951135;28;20034;-75
2020/12/09 12:39:28;;;;;;;51.47;28.83;;;3.60;99.90;;;;;;4949652;28;20027;-75
2020/12/09 12:41:53;;;;;;;48.83;26.88;;;3.50;99.90;;;;;;4965867;28;20050;-75
2020/12/09 12:44:19;;;;;;;50.63;30.20;;;3.50;99.90;;;;;;4966708;28;20026;-75
2020/12/09 12:46:49;;;;;;;33.08;20.10;;;3.60;99.90;;;;;;4968619;28;20034;-75
2020/12/09 12:49:15;;;;;;;32.42;18.63;;;3.50;99.90;;;;;;4965462;28;20033;-76
2020/12/09 12:51:42;;;;;;;35.00;19.10;;;3.10;99.90;;;;;;4959043;28;20390;-75